createdAt,value
2023-01-10T00:00:27.679Z,7.30
2023-01-10T00:02:54.715Z,7.30
2023-01-10T00:05:21.457Z,7.40
2023-01-10T00:07:48.315Z,7.40
2023-01-10T00:10:15.242Z,7.30
2023-01-10T00:13:03.443Z,7.40
2023-01-10T00:15:33.218Z,7.30
2023-01-10T00:17:59.923Z,7.40
2023-01-10T00:20:26.588Z,7.40
2023-01-10T00:22:53.249Z,7.40
2023-01-10T00:25:21.141Z,7.40
2023-01-10T00:28:07.471Z,7.50
2023-01-10T00:30:35.204Z,7.50
2023-01-10T00:33:02.678Z,7.40
2023-01-10T00:35:29.340Z,7.40
2023-01-10T00:38:01.362Z,7.40
2023-01-10T00:40:28.021Z,7.50
2023-01-10T00:43:13.141Z,7.50
2023-01-10T00:45:39.800Z,7.50
2023-01-10T00:48:06.526Z,7.50
2023-01-10T00:50:33.289Z,7.40
2023-01-10T00:52:59.956Z,7.40
2023-01-10T00:55:26.752Z,7.40
2023-01-10T00:57:53.512Z,7.40
2023-01-10T01:00:20.236Z,7.30
2023-01-10T01:02:48.423Z,7.30
2023-01-10T01:05:15.196Z,7.40
2023-01-10T01:07:41.856Z,7.30
2023-01-10T01:10:27.563Z,7.40
2023-01-10T01:12:55.792Z,7.30
2023-01-10T01:15:23.276Z,7.30
2023-01-10T01:17:50.000Z,7.30
2023-01-10T01:20:16.877Z,7.20
2023-01-10T01:22:43.658Z,7.20
2023-01-10T01:25:10.527Z,7.20
2023-01-10T01:27:38.154Z,7.20
2023-01-10T01:30:09.355Z,7.20
2023-01-10T01:32:35.995Z,7.20
2023-01-10T01:35:02.874Z,7.20
2023-01-10T01:37:29.606Z,7.10
2023-01-10T01:39:56.270Z,7.10
2023-01-10T01:42:34.436Z,7.10
2023-01-10T01:45:25.033Z,7.10
2023-01-10T01:48:30.150Z,7.10
2023-01-10T01:51:05.232Z,7.10
2023-01-10T01:53:43.520Z,7.10
2023-01-10T01:56:19.677Z,7.10
2023-01-10T01:59:09.611Z,7.20
2023-01-10T02:01:40.308Z,7.20
2023-01-10T02:04:13.619Z,7.20
2023-01-10T02:06:41.326Z,7.20
2023-01-10T02:09:32.470Z,7.20
2023-01-10T02:11:59.483Z,7.30
2023-01-10T02:14:26.799Z,7.20
2023-01-10T02:16:53.523Z,7.20
2023-01-10T02:20:01.662Z,7.20
2023-01-10T02:22:47.244Z,7.20
2023-01-10T02:25:19.604Z,7.20
2023-01-10T02:28:16.156Z,7.30
2023-01-10T02:30:51.970Z,7.30
2023-01-10T02:33:29.999Z,7.30
2023-01-10T02:36:05.360Z,7.30
2023-01-10T02:38:38.079Z,7.30
2023-01-10T02:41:18.913Z,7.30
2023-01-10T02:43:55.144Z,7.20
2023-01-10T02:46:27.523Z,7.30
2023-01-10T02:48:55.478Z,7.20
2023-01-10T02:51:27.701Z,7.30
2023-01-10T02:54:23.317Z,7.30
2023-01-10T02:57:05.032Z,7.30
2023-01-10T02:59:37.729Z,7.20
2023-01-10T03:02:21.812Z,7.30
2023-01-10T03:05:29.222Z,7.30
2023-01-10T03:08:04.888Z,7.30
2023-01-10T03:10:47.721Z,7.20
2023-01-10T03:13:24.866Z,7.20
2023-01-10T03:15:54.411Z,7.20
2023-01-10T03:18:27.033Z,7.20
2023-01-10T03:20:56.421Z,7.20
2023-01-10T03:23:24.473Z,7.20
2023-01-10T03:25:53.353Z,7.20
2023-01-10T03:28:32.075Z,7.20
2023-01-10T03:31:02.194Z,7.20
2023-01-10T03:33:31.900Z,7.20
2023-01-10T03:36:16.786Z,7.20
2023-01-10T03:39:02.549Z,7.20
2023-01-10T03:41:47.785Z,7.20
2023-01-10T03:44:44.854Z,7.20
2023-01-10T03:47:30.300Z,7.20
2023-01-10T03:50:19.446Z,7.20
2023-01-10T03:52:46.503Z,7.20
2023-01-10T03:55:17.968Z,7.10
2023-01-10T03:57:48.908Z,7.10
2023-01-10T04:00:16.703Z,7.10
2023-01-10T04:02:44.414Z,7.10
2023-01-10T04:05:11.548Z,7.20
2023-01-10T04:07:38.361Z,7.20
2023-01-10T04:10:06.449Z,7.20
2023-01-10T04:12:33.415Z,7.20
2023-01-10T04:15:01.321Z,7.20
2023-01-10T04:17:28.007Z,7.30
2023-01-10T04:19:55.052Z,7.30
2023-01-10T04:22:21.716Z,7.30
2023-01-10T04:24:51.102Z,7.30
2023-01-10T04:27:18.350Z,7.30
2023-01-10T04:29:45.043Z,7.30
2023-01-10T04:32:11.781Z,7.30
2023-01-10T04:34:38.479Z,7.30
2023-01-10T04:37:05.206Z,7.30
2023-01-10T04:39:31.877Z,7.30
2023-01-10T04:41:58.536Z,7.30
2023-01-10T04:44:25.249Z,7.30
2023-01-10T04:46:51.911Z,7.30
2023-01-10T04:49:18.575Z,7.30
2023-01-10T04:51:45.256Z,7.30
2023-01-10T04:54:11.893Z,7.30
2023-01-10T04:56:38.642Z,7.30
2023-01-10T04:59:06.563Z,7.30
2023-01-10T05:01:35.281Z,7.30
2023-01-10T05:04:03.300Z,7.30
2023-01-10T05:06:29.997Z,7.30
2023-01-10T05:08:56.974Z,7.30
2023-01-10T05:11:24.006Z,7.30
2023-01-10T05:13:51.245Z,7.20
2023-01-10T05:16:18.057Z,7.20
2023-01-10T05:18:45.112Z,7.20
2023-01-10T05:21:14.373Z,7.20
2023-01-10T05:23:41.324Z,7.20
2023-01-10T05:26:10.883Z,7.10
2023-01-10T05:28:38.572Z,7.00
2023-01-10T05:31:11.339Z,7.00
2023-01-10T05:33:38.018Z,7.00
2023-01-10T05:36:06.330Z,6.90
2023-01-10T05:38:33.524Z,6.90
2023-01-10T05:41:00.821Z,6.90
2023-01-10T05:43:28.160Z,6.90
2023-01-10T05:45:55.064Z,6.80
2023-01-10T05:48:22.295Z,6.70
2023-01-10T05:50:52.449Z,6.70
2023-01-10T05:53:19.870Z,6.80
2023-01-10T05:56:12.811Z,6.80
2023-01-10T05:58:39.501Z,6.70
2023-01-10T06:01:06.289Z,6.70
2023-01-10T06:03:33.047Z,6.80
2023-01-10T06:05:59.691Z,6.70
2023-01-10T06:08:26.480Z,6.70
2023-01-10T06:10:53.190Z,6.70
2023-01-10T06:13:19.831Z,6.80
2023-01-10T06:15:47.014Z,6.70
2023-01-10T06:18:14.364Z,6.70
2023-01-10T06:20:43.886Z,6.80
2023-01-10T06:23:10.819Z,6.70
2023-01-10T06:25:40.335Z,6.80
2023-01-10T06:28:08.574Z,6.80
2023-01-10T06:30:35.387Z,6.70
2023-01-10T06:33:03.620Z,6.70
2023-01-10T06:35:30.713Z,6.70
2023-01-10T06:37:58.242Z,6.60
2023-01-10T06:40:25.773Z,6.60
2023-01-10T06:42:52.775Z,6.60
2023-01-10T06:45:19.955Z,6.60
2023-01-10T06:47:46.692Z,6.60
2023-01-10T06:50:14.004Z,6.50
2023-01-10T06:52:41.823Z,6.50
2023-01-10T06:55:09.033Z,6.50
2023-01-10T06:57:35.897Z,6.50
2023-01-10T07:00:08.116Z,6.60
2023-01-10T07:02:35.141Z,6.60
2023-01-10T07:05:02.080Z,6.60
2023-01-10T07:07:28.792Z,6.70
2023-01-10T07:09:56.290Z,6.70
2023-01-10T07:12:23.011Z,6.70
2023-01-10T07:14:49.649Z,6.70
2023-01-10T07:17:16.383Z,6.70
2023-01-10T07:19:43.064Z,6.70
2023-01-10T07:22:09.811Z,6.80
2023-01-10T07:24:36.460Z,6.80
2023-01-10T07:27:03.278Z,6.80
2023-01-10T07:29:29.967Z,6.70
2023-01-10T07:31:56.641Z,6.70
2023-01-10T07:34:23.299Z,6.80
2023-01-10T07:36:49.998Z,6.80
2023-01-10T07:39:16.648Z,6.80
2023-01-10T07:41:43.325Z,6.90
2023-01-10T07:44:10.056Z,6.90
2023-01-10T07:46:36.791Z,6.90
2023-01-10T07:49:03.495Z,6.90
2023-01-10T07:51:30.178Z,6.90
2023-01-10T07:53:56.878Z,6.90
2023-01-10T07:56:23.932Z,6.90
2023-01-10T07:58:50.802Z,6.90
2023-01-10T08:01:17.540Z,6.90
2023-01-10T08:03:44.331Z,7.00
2023-01-10T08:06:11.493Z,7.00
2023-01-10T08:08:38.978Z,7.00
2023-01-10T08:11:06.285Z,7.00
2023-01-10T08:13:33.158Z,7.00
2023-01-10T08:16:00.258Z,7.00
2023-01-10T08:18:27.955Z,7.00
2023-01-10T08:20:54.651Z,7.10
2023-01-10T08:23:21.960Z,7.10
2023-01-10T08:25:49.907Z,7.20
2023-01-10T08:28:16.732Z,7.10
2023-01-10T08:30:44.005Z,7.10
2023-01-10T08:33:12.288Z,7.10
2023-01-10T08:35:43.302Z,7.10
2023-01-10T08:38:11.344Z,7.20
2023-01-10T08:40:38.038Z,7.20
2023-01-10T08:43:07.696Z,7.20
2023-01-10T08:45:35.239Z,7.20
2023-01-10T08:48:02.429Z,7.30
2023-01-10T08:50:29.752Z,7.20
2023-01-10T08:53:00.358Z,7.30
2023-01-10T08:55:28.337Z,7.30
2023-01-10T08:57:55.181Z,7.30
2023-01-10T09:00:22.439Z,7.30
2023-01-10T09:02:49.191Z,7.30
2023-01-10T09:05:27.185Z,7.30
2023-01-10T09:08:00.151Z,7.30
2023-01-10T09:10:30.769Z,7.30
2023-01-10T09:12:59.933Z,7.40
2023-01-10T09:15:30.156Z,7.40
2023-01-10T09:18:02.248Z,7.40
2023-01-10T09:20:30.000Z,7.40
2023-01-10T09:22:58.461Z,7.40
2023-01-10T09:25:25.313Z,7.50
2023-01-10T09:28:00.154Z,7.50
2023-01-10T09:30:28.594Z,7.60
2023-01-10T09:32:57.103Z,7.50
2023-01-10T09:35:25.274Z,7.60
2023-01-10T09:37:58.881Z,7.60
2023-01-10T09:41:03.173Z,7.70
2023-01-10T09:43:50.757Z,7.80
2023-01-10T09:46:46.499Z,7.80
2023-01-10T09:49:25.600Z,7.80
2023-01-10T09:51:58.305Z,7.90
2023-01-10T09:54:32.230Z,7.90
2023-01-10T09:57:01.181Z,8.00
2023-01-10T09:59:37.232Z,8.00
2023-01-10T10:02:34.835Z,8.10
2023-01-10T10:05:04.737Z,8.10
2023-01-10T10:07:31.404Z,8.10
2023-01-10T10:09:58.455Z,8.10
2023-01-10T10:12:37.650Z,8.10
2023-01-10T10:15:39.858Z,8.10
2023-01-10T10:18:27.188Z,7.90
2023-01-10T10:21:03.126Z,7.90
2023-01-10T10:23:48.716Z,7.90
2023-01-10T10:26:25.014Z,7.80
2023-01-10T10:29:22.692Z,7.90
2023-01-10T10:32:21.546Z,8.00
2023-01-10T10:34:56.321Z,8.10
2023-01-10T10:37:32.915Z,8.10
2023-01-10T10:40:14.677Z,8.10
2023-01-10T10:42:47.227Z,8.10
2023-01-10T10:45:39.433Z,8.10
2023-01-10T10:48:20.918Z,8.10
2023-01-10T10:51:02.326Z,8.10
2023-01-10T10:53:31.344Z,8.20
2023-01-10T10:55:58.722Z,8.20
2023-01-10T10:58:26.101Z,8.20
2023-01-10T11:00:53.299Z,8.20
2023-01-10T11:03:49.895Z,8.20
2023-01-10T11:06:19.243Z,8.30
2023-01-10T11:08:48.133Z,8.40
2023-01-10T11:11:31.586Z,8.50
2023-01-10T11:14:04.460Z,8.60
2023-01-10T11:16:32.610Z,8.70
2023-01-10T11:19:24.675Z,8.70
2023-01-10T11:21:54.128Z,8.80
2023-01-10T11:24:36.045Z,8.80
2023-01-10T11:27:15.139Z,8.70
2023-01-10T11:29:50.260Z,8.70
2023-01-10T11:32:19.056Z,8.50
2023-01-10T11:34:58.890Z,8.30
2023-01-10T11:37:32.533Z,8.30
2023-01-10T11:40:20.675Z,8.20
2023-01-10T11:42:47.817Z,8.20
2023-01-10T11:45:17.509Z,8.10
2023-01-10T11:47:45.945Z,8.00
2023-01-10T11:50:17.732Z,8.00
2023-01-10T11:52:46.172Z,8.00
2023-01-10T11:55:28.919Z,8.00
2023-01-10T11:58:11.159Z,8.00
2023-01-10T12:00:47.449Z,8.00
2023-01-10T12:03:37.096Z,7.90
2023-01-10T12:06:08.509Z,7.90
2023-01-10T12:08:38.141Z,7.90
2023-01-10T12:11:06.288Z,7.90
2023-01-10T12:13:51.119Z,7.90
2023-01-10T12:16:28.196Z,7.90
2023-01-10T12:18:59.724Z,7.90
2023-01-10T12:21:29.643Z,8.00
2023-01-10T12:24:00.623Z,8.00
2023-01-10T12:26:31.291Z,8.10
2023-01-10T12:29:01.524Z,8.00
2023-01-10T12:31:31.120Z,8.00
2023-01-10T12:34:07.090Z,7.90
2023-01-10T12:36:44.765Z,7.80
2023-01-10T12:39:23.518Z,7.80
2023-01-10T12:42:23.937Z,7.80
2023-01-10T12:45:18.991Z,7.80
2023-01-10T12:48:03.914Z,7.90
2023-01-10T12:50:44.893Z,7.90
2023-01-10T12:53:29.881Z,7.90
2023-01-10T12:56:00.339Z,7.90
2023-01-10T12:59:01.872Z,8.00
2023-01-10T13:01:35.435Z,8.10
2023-01-10T13:04:15.599Z,8.10
2023-01-10T13:06:43.903Z,8.10
2023-01-10T13:09:22.598Z,7.90
2023-01-10T13:11:52.115Z,7.80
2023-01-10T13:14:25.074Z,7.60
2023-01-10T13:17:34.850Z,7.60
2023-01-10T13:20:16.812Z,7.60
2023-01-10T13:22:45.530Z,7.70
2023-01-10T13:25:25.596Z,7.70
2023-01-10T13:28:15.175Z,7.70
2023-01-10T13:30:42.233Z,7.70
2023-01-10T13:33:32.225Z,7.70
2023-01-10T13:36:11.596Z,7.70
2023-01-10T13:38:49.943Z,7.60
2023-01-10T13:41:36.111Z,7.60
2023-01-10T13:44:13.099Z,7.70
2023-01-10T13:46:45.551Z,7.80
2023-01-10T13:49:12.171Z,7.80
2023-01-10T13:51:39.915Z,7.90
2023-01-10T13:54:18.693Z,7.80
2023-01-10T13:56:45.738Z,7.80
2023-01-10T13:59:18.551Z,7.90
2023-01-10T14:02:09.987Z,7.80
2023-01-10T14:04:45.485Z,7.80
2023-01-10T14:07:33.294Z,7.80
2023-01-10T14:10:18.767Z,7.80
2023-01-10T14:13:12.120Z,7.80
2023-01-10T14:15:41.812Z,7.80
2023-01-10T14:18:19.444Z,7.60
2023-01-10T14:21:01.615Z,7.60
2023-01-10T14:23:56.865Z,7.60
2023-01-10T14:26:36.737Z,7.60
2023-01-10T14:29:12.623Z,7.60
2023-01-10T14:31:44.160Z,7.60
2023-01-10T14:34:18.004Z,7.50
2023-01-10T14:36:57.481Z,7.50
2023-01-10T14:39:26.145Z,7.50
2023-01-10T14:41:57.148Z,7.40
2023-01-10T14:45:03.794Z,7.40
2023-01-10T14:47:33.632Z,7.30
2023-01-10T14:50:04.518Z,7.30
2023-01-10T14:52:31.513Z,7.30
2023-01-10T14:55:10.083Z,7.30
2023-01-10T14:57:36.896Z,7.30
2023-01-10T15:00:17.794Z,7.30
2023-01-10T15:02:48.783Z,7.20
2023-01-10T15:05:25.982Z,7.20
2023-01-10T15:08:15.140Z,7.20
2023-01-10T15:10:44.000Z,7.20
2023-01-10T15:13:15.661Z,7.20
2023-01-10T15:15:45.683Z,7.20
2023-01-10T15:18:27.563Z,7.20
2023-01-10T15:20:55.276Z,7.20
2023-01-10T15:23:23.254Z,7.20
2023-01-10T15:26:02.696Z,7.20
2023-01-10T15:28:30.201Z,7.20
2023-01-10T15:30:58.377Z,7.20
2023-01-10T15:33:30.325Z,7.20
2023-01-10T15:36:03.199Z,7.20
2023-01-10T15:38:34.006Z,7.20
2023-01-10T15:41:05.889Z,7.20
2023-01-10T15:43:36.942Z,7.20
2023-01-10T15:46:06.179Z,7.10
2023-01-10T15:48:43.824Z,7.10
2023-01-10T15:51:22.568Z,7.10
2023-01-10T15:54:07.452Z,7.10
2023-01-10T15:56:49.584Z,7.10
2023-01-10T15:59:23.862Z,7.10
2023-01-10T16:02:06.421Z,7.00
2023-01-10T16:04:35.544Z,7.00
2023-01-10T16:07:08.909Z,7.00
2023-01-10T16:09:36.286Z,7.00
2023-01-10T16:12:21.822Z,7.00
2023-01-10T16:14:48.650Z,6.90
2023-01-10T16:17:15.327Z,6.80
2023-01-10T16:19:42.031Z,6.80
2023-01-10T16:22:12.589Z,6.70
2023-01-10T16:24:42.684Z,6.70
2023-01-10T16:27:10.489Z,6.70
2023-01-10T16:29:37.594Z,6.70
2023-01-10T16:32:14.360Z,6.70
2023-01-10T16:34:41.009Z,6.60
2023-01-10T16:37:08.588Z,6.50
2023-01-10T16:39:35.284Z,6.60
2023-01-10T16:42:20.414Z,6.50
2023-01-10T16:44:47.122Z,6.50
2023-01-10T16:47:13.808Z,6.50
2023-01-10T16:49:41.703Z,6.50
2023-01-10T16:52:13.575Z,6.40
2023-01-10T16:54:40.327Z,6.50
2023-01-10T16:57:06.979Z,6.40
2023-01-10T16:59:33.620Z,6.40
2023-01-10T17:02:00.437Z,6.40
2023-01-10T17:04:31.211Z,6.40
2023-01-10T17:06:59.084Z,6.40
2023-01-10T17:09:31.826Z,6.30
2023-01-10T17:12:03.196Z,6.40
2023-01-10T17:14:32.450Z,6.30
2023-01-10T17:16:59.142Z,6.30
2023-01-10T17:19:25.807Z,6.30
2023-01-10T17:21:52.505Z,6.30
2023-01-10T17:24:19.751Z,6.30
2023-01-10T17:26:46.516Z,6.30
2023-01-10T17:29:13.181Z,6.30
2023-01-10T17:31:39.986Z,6.20
2023-01-10T17:34:07.150Z,6.20
2023-01-10T17:36:38.585Z,6.20
2023-01-10T17:39:06.203Z,6.30
2023-01-10T17:41:33.261Z,6.20
2023-01-10T17:43:59.951Z,6.20
2023-01-10T17:46:26.679Z,6.20
2023-01-10T17:48:53.414Z,6.20
2023-01-10T17:51:20.280Z,6.20
2023-01-10T17:53:46.959Z,6.20
2023-01-10T17:56:14.469Z,6.20
2023-01-10T17:58:41.272Z,6.20
2023-01-10T18:01:19.050Z,6.20
2023-01-10T18:03:45.852Z,6.20
2023-01-10T18:06:23.432Z,6.20
2023-01-10T18:08:51.330Z,6.20
2023-01-10T18:11:18.161Z,6.20
2023-01-10T18:13:44.958Z,6.10
2023-01-10T18:16:11.616Z,6.20
2023-01-10T18:18:39.041Z,6.20
2023-01-10T18:21:16.247Z,6.10
2023-01-10T18:23:43.113Z,6.10
2023-01-10T18:26:12.207Z,6.10
2023-01-10T18:28:42.562Z,6.10
2023-01-10T18:31:15.975Z,6.10
2023-01-10T18:33:43.127Z,6.10
2023-01-10T18:36:15.148Z,6.10
2023-01-10T18:38:42.399Z,6.10
2023-01-10T18:41:09.447Z,6.10
2023-01-10T18:43:36.253Z,6.00
2023-01-10T18:46:20.938Z,6.00
2023-01-10T18:48:50.091Z,6.00
2023-01-10T18:51:18.870Z,6.00
2023-01-10T18:53:47.392Z,5.90
2023-01-10T18:56:14.656Z,6.00
2023-01-10T18:58:42.684Z,6.00
2023-01-10T19:01:18.539Z,6.00
2023-01-10T19:03:45.956Z,6.00
2023-01-10T19:06:16.268Z,6.00
2023-01-10T19:08:44.341Z,6.00
2023-01-10T19:11:15.282Z,6.10
2023-01-10T19:13:44.138Z,6.10
2023-01-10T19:16:18.066Z,6.10
2023-01-10T19:18:48.958Z,6.10
2023-01-10T19:21:15.739Z,6.10
2023-01-10T19:23:44.265Z,6.20
2023-01-10T19:26:12.070Z,6.10
2023-01-10T19:28:39.255Z,6.10
2023-01-10T19:31:06.373Z,6.10
2023-01-10T19:33:34.654Z,6.00
2023-01-10T19:36:06.355Z,6.00
2023-01-10T19:38:33.401Z,6.00
2023-01-10T19:41:00.120Z,6.00
2023-01-10T19:43:26.788Z,5.90
2023-01-10T19:45:54.356Z,5.90
2023-01-10T19:48:22.707Z,5.90
2023-01-10T19:50:49.578Z,5.90
2023-01-10T19:53:16.352Z,5.90
2023-01-10T19:55:43.035Z,5.80
2023-01-10T19:58:09.707Z,5.80
2023-01-10T20:00:36.388Z,5.80
2023-01-10T20:03:05.040Z,5.80
2023-01-10T20:05:34.545Z,5.80
2023-01-10T20:08:02.036Z,5.70
2023-01-10T20:10:28.798Z,5.70
2023-01-10T20:12:55.469Z,5.70
2023-01-10T20:15:22.172Z,5.70
2023-01-10T20:17:48.885Z,5.80
2023-01-10T20:20:16.685Z,5.80
2023-01-10T20:22:43.395Z,5.80
2023-01-10T20:25:10.233Z,5.80
2023-01-10T20:27:37.164Z,5.80
2023-01-10T20:30:05.413Z,5.80
2023-01-10T20:32:32.081Z,5.70
2023-01-10T20:34:58.750Z,5.80
2023-01-10T20:37:25.508Z,5.80
2023-01-10T20:39:52.306Z,5.80
2023-01-10T20:42:18.967Z,5.80
2023-01-10T20:44:45.662Z,5.80
2023-01-10T20:47:12.327Z,5.80
2023-01-10T20:49:39.068Z,5.80
2023-01-10T20:52:05.754Z,5.90
2023-01-10T20:54:34.663Z,5.90
2023-01-10T20:57:01.362Z,5.90
2023-01-10T20:59:29.296Z,5.90
2023-01-10T21:01:56.133Z,5.90
2023-01-10T21:04:22.857Z,5.90
2023-01-10T21:06:49.686Z,6.00
2023-01-10T21:09:16.633Z,6.00
2023-01-10T21:11:58.019Z,6.00
2023-01-10T21:14:27.158Z,6.00
2023-01-10T21:16:53.833Z,6.00
2023-01-10T21:19:20.669Z,6.00
2023-01-10T21:21:47.528Z,6.00
2023-01-10T21:24:15.681Z,6.10
2023-01-10T21:26:42.334Z,6.10
2023-01-10T21:29:09.798Z,6.10
2023-01-10T21:31:37.238Z,6.10
2023-01-10T21:34:03.952Z,6.10
2023-01-10T21:36:30.638Z,6.20
2023-01-10T21:38:57.358Z,6.10
2023-01-10T21:41:42.609Z,6.20
2023-01-10T21:44:09.385Z,6.20
2023-01-10T21:46:36.579Z,6.10
2023-01-10T21:49:04.824Z,6.10
2023-01-10T21:51:31.589Z,6.10
2023-01-10T21:53:59.084Z,6.10
2023-01-10T21:56:25.864Z,6.10
2023-01-10T21:58:52.568Z,6.10
2023-01-10T22:01:19.392Z,6.10
2023-01-10T22:03:46.288Z,6.20
2023-01-10T22:06:13.405Z,6.20
2023-01-10T22:08:40.386Z,6.20
2023-01-10T22:11:09.229Z,6.20
2023-01-10T22:13:37.418Z,6.20
2023-01-10T22:16:04.475Z,6.20
2023-01-10T22:18:31.863Z,6.10
2023-01-10T22:20:59.227Z,6.20
2023-01-10T22:23:28.522Z,6.20
2023-01-10T22:26:10.547Z,6.20
2023-01-10T22:28:37.511Z,6.20
2023-01-10T22:31:05.004Z,6.20
2023-01-10T22:33:35.429Z,6.10
2023-01-10T22:36:13.358Z,6.10
2023-01-10T22:38:41.526Z,6.20
2023-01-10T22:41:19.909Z,6.20
2023-01-10T22:43:47.538Z,6.10
2023-01-10T22:46:17.361Z,6.10
2023-01-10T22:48:44.412Z,6.10
2023-01-10T22:51:12.562Z,6.10
2023-01-10T22:53:39.342Z,6.10
2023-01-10T22:56:07.815Z,6.10
2023-01-10T22:58:35.204Z,6.10
2023-01-10T23:01:06.945Z,6.00
2023-01-10T23:03:34.483Z,6.00
2023-01-10T23:06:01.189Z,6.00
2023-01-10T23:08:28.087Z,6.00
2023-01-10T23:10:55.154Z,6.00
2023-01-10T23:13:23.371Z,6.00
2023-01-10T23:16:01.781Z,6.10
2023-01-10T23:18:29.048Z,6.10
2023-01-10T23:20:56.235Z,6.10
2023-01-10T23:23:24.429Z,6.10
2023-01-10T23:26:01.523Z,6.10
2023-01-10T23:28:33.973Z,6.10
2023-01-10T23:31:00.903Z,6.00
2023-01-10T23:33:28.151Z,6.10
2023-01-10T23:35:54.971Z,6.10
2023-01-10T23:38:21.671Z,6.10
2023-01-10T23:40:48.645Z,6.10
2023-01-10T23:43:15.337Z,6.10
2023-01-10T23:45:43.649Z,6.10
2023-01-10T23:48:11.714Z,6.20
2023-01-10T23:50:38.926Z,6.20
2023-01-10T23:53:05.929Z,6.20
2023-01-10T23:55:33.398Z,6.20
2023-01-10T23:58:00.189Z,6.20
